Aérodrome :
LOGIN :

S'inscrire | Disclaimer

   EN    FR    IT 

 










Légende :    VFR   VFR Marginal   IFR   IFR Intensif   IFR Très Intensif
Visi : 
Plafond : 
>= 8 km
>= 3000ft
5 à 8 km
1000 à 3000 ft
1500m à 5 km
500 à 1000 ft
800 à 1500m
200 à 500 ft
< 800m
< 200 ft
Symboles :   Orages  Brouillard  Fortes neiges  Fortes précipitations  Vent > 20 kt
SIGMETs :   Divers  Orages  Givrage  Turbulence  Onde Orograph.  Cendres Volcan.







- Altitude de l'aérodrome : 12 ft
- Code IATA : NCE
- Voir les cartes d'approche


LFMN - Nice

DERNIER METAR :
  • 191830Z 33009KT 9999 FEW060 16/09 Q1013

METARs EXPIRÉS :
  • 191800Z 33009KT 9999 FEW060 16/10 Q1013
  • 191730Z 34006KT 320V020 9999 FEW060 SCT130 17/09 Q1012
  • 191700Z 32008KT 9999 SCT060 SCT130 17/08 Q1012
  • 191630Z 30010KT 230V340 9999 FEW030TCU SCT060 BKN110 17/08 Q1012
  • 191600Z 27011KT 240V320 9999 -SHRA FEW030TCU SCT060 BKN100 17/07 Q1012 WS ALL RWY BECMG NSC

TAF AMD TAF LFMN
Valide du 19 à 15h jusqu'au 20 à 21h UTC


191459Z 1915/2021 10008KT 9999 FEW040 BKN140
PROB40
TEMPO 1915/1917 VRB10G20KT 4000 TSRA FEW040CB SCT050
BECMG 1918/1920 34010KT CAVOK
BECMG 2008/2010 18010KT
BECMG 2018/2020 34010KT
ATIS : +33 4 93 17 21 16
Pas de NOTAMs connus pour ce terrain.
3 SIGMETs publiés pour la FIR Marseille (LFMM) :
 
Turbulence forte
LFMM SIGMET 9 VALID 191600/192000 LFPW
LFMM MARSEILLE FIR/UIR SEV TURB FCST WI N4130 E00500 - N4400 E00500 - N4200 E00815 - N4045 E00715 SFC/FL050 STNR NC=
Turbulence forte
LFMM SIGMET 7 VALID 191600/192000 LFPW
LFMM MARSEILLE FIR/UIR SEV TURB FCST WI N4130 E00530 - N4400 E00330 - N4415 E00515 - N4200 E00700 FL200/320 MOV SE 60KT NC=
Orages noyés dans la masse
LFMM SIGMET 11 VALID 191800/192000 LFPW
LFMM MARSEILLE FIR/UIR EMBD TS OBS WI N4315 E00945 - N4115 E00945 - N4115 E00845 - N4245 E00830 TOP FL300 STNR NC=



MET'MAP, la Météo Aéronautique d'un coup d'oeil ! - Copyright ORBIFLY Décembre 2007 - Disclaimer

ORBIFLY MET'MAP TEAM :

Programmation & Développement : Alexandra Zaïnal
Conception & Développement : Baudouin d'Aumeries
Co-Programmation & Développement : Marc-Olivier Méhu
Soutien technique & logistique : Manuel Goepfert

Contact : metmap@orbifly.com




SOURCES & CREDITS :

   NOAA